Time;durP1;ratioP1;P1;durP2;ratioP2;P2;SDS_P1;SDS_P2;PMS_P1;PMS_P2;Temp;Humidity;BMP_temperature;BMP_pressure;BME280_temperature;BME280_humidity;BME280_pressure;Samples;Min_cycle;Max_cycle;Signal;HPM_P1;HPM_P2
2022/07/30 00:02:00;;;;;;;6.03;2.10;;;;;;;23.34;47.53;101762.31;5075168;28;20020;-66
2022/07/30 00:04:27;;;;;;;6.13;2.10;;;;;;;23.32;47.45;101754.47;5074737;28;20156;-66
2022/07/30 00:06:52;;;;;;;6.00;1.92;;;;;;;23.32;47.59;101746.47;5075183;28;20468;-66
2022/07/30 00:09:20;;;;;;;5.70;1.90;;;;;;;23.32;47.79;101753.59;5074877;28;20044;-65
2022/07/30 00:11:45;;;;;;;5.10;2.25;;;;;;;23.31;47.98;101749.28;5074380;28;20304;-65
2022/07/30 00:14:11;;;;;;;4.20;2.07;;;;;;;23.30;47.68;101747.59;5075029;28;20475;-65
2022/07/30 00:16:37;;;;;;;5.75;2.28;;;;;;;23.28;47.93;101739.75;5074778;28;20282;-66
2022/07/30 00:19:02;;;;;;;5.18;2.30;;;;;;;23.27;48.21;101737.22;5074028;28;20037;-66
2022/07/30 00:21:28;;;;;;;7.00;1.95;;;;;;;23.25;48.30;101740.00;5075072;28;20403;-65
2022/07/30 00:23:53;;;;;;;4.90;2.22;;;;;;;23.23;48.08;101736.66;5074045;28;20024;-65
2022/07/30 00:26:18;;;;;;;4.70;2.00;;;;;;;23.23;48.23;101741.16;5074598;28;20024;-66
2022/07/30 00:28:44;;;;;;;4.22;2.05;;;;;;;23.22;48.22;101736.78;5075028;28;20277;-66
2022/07/30 00:31:09;;;;;;;4.40;2.00;;;;;;;23.23;48.25;101741.97;5073701;28;20120;-66
2022/07/30 00:33:34;;;;;;;6.00;2.17;;;;;;;23.21;48.32;101741.28;5074860;28;20040;-65
2022/07/30 00:36:00;;;;;;;4.87;2.13;;;;;;;23.21;48.80;101745.75;5074323;28;20029;-65
2022/07/30 00:38:25;;;;;;;4.67;2.23;;;;;;;23.19;48.91;101745.88;5073927;28;20318;-66
2022/07/30 00:40:50;;;;;;;3.72;1.85;;;;;;;23.19;48.73;101748.53;5074616;28;20292;-66
2022/07/30 00:43:17;;;;;;;6.78;2.40;;;;;;;23.18;48.99;101745.03;5074371;28;20111;-66
2022/07/30 00:45:43;;;;;;;6.45;2.25;;;;;;;23.19;48.86;101751.19;5074187;28;20368;-66
2022/07/30 00:48:10;;;;;;;6.20;2.30;;;;;;;23.16;48.70;101749.66;5074067;28;20472;-66
2022/07/30 00:50:35;;;;;;;4.55;2.13;;;;;;;23.17;49.10;101742.53;5073894;28;20021;-66
2022/07/30 00:53:01;;;;;;;5.43;2.45;;;;;;;23.15;49.09;101747.16;5073373;28;20024;-66
2022/07/30 00:55:26;;;;;;;4.78;2.38;;;;;;;23.14;48.82;101748.94;5074342;28;20025;-66
2022/07/30 00:57:51;;;;;;;5.82;2.58;;;;;;;23.14;49.00;101740.97;5074530;28;20017;-66
2022/07/30 01:00:17;;;;;;;6.82;2.65;;;;;;;23.14;49.29;101740.13;5073364;28;20025;-66
2022/07/30 01:02:45;;;;;;;5.35;2.33;;;;;;;22.97;49.00;101709.69;5074165;28;20570;-66
2022/07/30 01:05:10;;;;;;;5.22;2.78;;;;;;;23.11;49.32;101738.56;5074004;28;20376;-66
2022/07/30 01:07:36;;;;;;;5.28;2.35;;;;;;;23.11;48.91;101732.44;5073410;28;20491;-66
2022/07/30 01:10:03;;;;;;;5.13;2.30;;;;;;;23.10;48.94;101730.78;5073585;28;20024;-66
2022/07/30 01:12:30;;;;;;;6.55;2.30;;;;;;;23.09;49.12;101727.25;5074056;28;20434;-66
2022/07/30 01:14:57;;;;;;;5.70;2.45;;;;;;;23.09;49.31;101734.41;5072757;28;20488;-65
2022/07/30 01:17:22;;;;;;;5.15;2.30;;;;;;;23.06;49.49;101730.16;5074032;28;20025;-66
2022/07/30 01:19:51;;;;;;;4.80;2.33;;;;;;;23.07;49.11;101728.34;5073713;28;20123;-66
2022/07/30 01:22:25;;;;;;;4.25;2.40;;;;;;;23.07;49.29;101731.00;5073194;28;20063;-66
2022/07/30 01:24:57;;;;;;;5.22;2.40;;;;;;;23.06;49.38;101731.97;5074003;28;20036;-66
2022/07/30 01:27:23;;;;;;;7.72;2.92;;;;;;;23.04;49.52;101737.44;5073043;28;20036;-66
2022/07/30 01:29:51;;;;;;;7.25;2.55;;;;;;;23.05;49.50;101732.94;5073666;28;20032;-66
2022/07/30 01:32:30;;;;;;;4.72;2.50;;;;;;;23.04;49.39;101731.28;5073314;28;20024;-66
2022/07/30 01:34:59;;;;;;;5.82;2.67;;;;;;;23.03;49.29;101732.25;5072652;28;20028;-66
2022/07/30 01:37:26;;;;;;;6.47;2.50;;;;;;;23.02;49.63;101739.38;5073677;28;20032;-66
2022/07/30 01:39:53;;;;;;;5.57;2.47;;;;;;;23.02;49.77;101736.72;5073618;28;20020;-66
2022/07/30 01:42:19;;;;;;;7.35;2.60;;;;;;;23.01;49.48;101733.22;5072575;28;20025;-66
2022/07/30 01:44:47;;;;;;;4.60;2.40;;;;;;;23.00;49.66;101728.88;5073407;28;20078;-66
2022/07/30 01:47:14;;;;;;;4.68;2.90;;;;;;;23.00;49.87;101728.03;5073141;28;20016;-66
2022/07/30 01:49:40;;;;;;;5.63;2.78;;;;;;;22.99;49.66;101735.16;5072538;28;20021;-66
2022/07/30 01:52:08;;;;;;;5.38;2.63;;;;;;;22.99;49.64;101732.50;5073023;28;20016;-66
2022/07/30 01:54:36;;;;;;;5.63;2.67;;;;;;;22.98;49.50;101744.09;5073326;28;20024;-66
2022/07/30 01:57:02;;;;;;;5.57;2.55;;;;;;;22.97;49.52;101733.63;5072119;28;20070;-66
2022/07/30 01:59:33;;;;;;;4.93;2.60;;;;;;;22.97;49.51;101737.13;5072969;28;20024;-66
2022/07/30 02:01:59;;;;;;;6.30;2.97;;;;;;;22.94;49.65;101733.88;5072623;28;20031;-66
2022/07/30 02:04:26;;;;;;;4.60;2.65;;;;;;;22.94;49.60;101728.56;5072526;28;20021;-65
2022/07/30 02:06:59;;;;;;;4.63;2.60;;;;;;;22.94;49.48;101732.09;5073160;28;20024;-65
2022/07/30 02:09:36;;;;;;;5.45;2.95;;;;;;;22.94;49.53;101737.41;5072243;28;20490;-66
2022/07/30 02:12:28;;;;;;;5.20;2.88;;;;;;;22.93;49.55;101740.19;5072711;28;20040;-66
2022/07/30 02:15:09;;;;;;;5.20;2.78;;;;;;;22.92;49.74;101741.16;5072815;28;20043;-66
2022/07/30 02:17:53;;;;;;;7.00;3.17;;;;;;;22.91;49.82;101740.31;5072027;28;20052;-65
2022/07/30 02:20:20;;;;;;;;;;;;;;;22.88;49.93;101737.09;5072838;28;20032;-66
2022/07/30 02:22:49;;;;;;;4.90;2.72;;;;;;;22.89;50.08;101741.44;5072685;28;20355;-65
2022/07/30 02:25:23;;;;;;;5.45;2.90;;;;;;;22.89;49.71;101739.63;5071821;28;20029;-65
2022/07/30 02:27:53;;;;;;;4.88;2.97;;;;;;;22.89;49.91;101733.44;5072895;28;20024;-65
2022/07/30 02:30:22;;;;;;;4.85;3.05;;;;;;;22.88;49.52;101737.09;5072093;28;20529;-65
2022/07/30 02:32:50;;;;;;;5.30;2.95;;;;;;;22.88;49.80;101737.09;5072719;28;20024;-65
2022/07/30 02:35:20;;;;;;;6.28;3.20;;;;;;;22.87;49.70;101736.25;5072301;28;20024;-65
2022/07/30 02:37:49;;;;;;;4.72;2.83;;;;;;;22.87;49.78;101743.38;5071981;28;20046;-65
2022/07/30 02:40:18;;;;;;;4.75;2.78;;;;;;;22.87;50.16;101748.69;5072231;28;20376;-65
2022/07/30 02:42:48;;;;;;;5.55;3.13;;;;;;;22.84;49.79;101747.13;5072631;28;20104;-65
2022/07/30 02:45:16;;;;;;;7.00;3.33;;;;;;;22.84;49.91;101744.47;5071508;28;20024;-65
2022/07/30 02:47:44;;;;;;;5.38;2.85;;;;;;;22.83;49.67;101746.31;5072427;28;20081;-65
2022/07/30 02:50:10;;;;;;;5.20;3.00;;;;;;;22.83;49.65;101746.31;5071979;28;20036;-65
2022/07/30 02:52:37;;;;;;;5.80;2.92;;;;;;;22.82;50.01;101744.63;5071766;28;20409;-65
2022/07/30 02:55:04;;;;;;;5.35;3.10;;;;;;;22.81;49.95;101742.94;5072666;28;20048;-65
2022/07/30 02:57:31;;;;;;;6.50;3.40;;;;;;;22.83;49.99;101751.63;5072254;28;20021;-65
2022/07/30 02:59:57;;;;;;;5.07;2.78;;;;;;;22.80;49.98;101748.41;5070565;28;20051;-65
2022/07/30 03:02:23;;;;;;;5.03;2.90;;;;;;;22.80;49.65;101745.75;5072237;28;20028;-65
2022/07/30 03:04:53;;;;;;;5.72;3.03;;;;;;;22.79;49.57;101746.72;5072595;28;20047;-65
2022/07/30 03:07:19;;;;;;;6.18;3.10;;;;;;;22.78;49.75;101751.19;5071213;28;20480;-65
2022/07/30 03:09:46;;;;;;;7.03;3.50;;;;;;;22.77;49.65;101759.28;5072337;28;20108;-65
2022/07/30 03:12:13;;;;;;;6.68;3.55;;;;;;;22.77;49.64;101760.13;5072724;28;20464;-65
2022/07/30 03:14:39;;;;;;;6.43;3.22;;;;;;;22.74;49.60;101757.72;5075346;28;20082;-65
2022/07/30 03:17:06;;;;;;;5.85;3.20;;;;;;;22.75;50.00;101755.94;5075764;28;20028;-65
2022/07/30 03:19:35;;;;;;;5.40;3.25;;;;;;;22.71;49.54;101747.38;5076234;28;20036;-65
2022/07/30 03:22:03;;;;;;;6.55;3.60;;;;;;;22.73;49.93;101750.75;5075748;28;20456;-65
2022/07/30 03:24:31;;;;;;;5.70;3.60;;;;;;;22.71;49.63;101743.88;5076138;28;20021;-66
2022/07/30 03:26:59;;;;;;;5.18;3.05;;;;;;;22.72;49.89;101743.75;5074875;28;20498;-65
2022/07/30 03:29:26;;;;;;;7.53;3.47;;;;;;;22.70;49.84;101744.84;5075896;28;20029;-65
2022/07/30 03:31:52;;;;;;;5.95;3.17;;;;;;;22.70;49.66;101743.06;5076153;28;20059;-65
2022/07/30 03:34:20;;;;;;;6.90;3.15;;;;;;;22.71;49.51;101749.19;5074888;28;20051;-65
2022/07/30 03:36:46;;;;;;;6.07;3.33;;;;;;;22.71;49.69;101747.38;5075694;28;20500;-65
2022/07/30 03:39:15;;;;;;;6.40;3.38;;;;;;;22.70;49.42;101748.38;5075546;28;20039;-66
2022/07/30 03:41:41;;;;;;;5.25;3.22;;;;;;;22.67;49.97;101748.63;5074924;28;20029;-65
2022/07/30 03:44:10;;;;;;;7.57;3.22;;;;;;;22.68;49.59;101752.13;5075356;28;20107;-65
2022/07/30 03:46:36;;;;;;;6.10;3.25;;;;;;;22.69;49.43;101756.47;5075692;28;20017;-65
2022/07/30 03:49:04;;;;;;;6.13;3.00;;;;;;;22.68;49.49;101752.94;5074589;28;20021;-65
2022/07/30 03:51:31;;;;;;;5.97;3.15;;;;;;;22.67;49.56;101759.25;5075749;28;20028;-65
2022/07/30 03:53:57;;;;;;;5.43;3.28;;;;;;;22.66;49.40;101752.25;5075325;28;20012;-65
2022/07/30 03:56:23;;;;;;;6.07;3.28;;;;;;;22.66;49.60;101760.22;5074744;28;20106;-65
2022/07/30 03:58:48;;;;;;;5.47;3.42;;;;;;;22.65;49.85;101769.16;5075419;28;20029;-65
2022/07/30 04:01:13;;;;;;;7.45;3.15;;;;;;;22.65;49.77;101771.81;5075234;28;20349;-65
2022/07/30 04:03:39;;;;;;;5.80;3.10;;;;;;;22.63;49.72;101769.28;5074686;28;20017;-65
2022/07/30 04:06:04;;;;;;;5.13;3.05;;;;;;;22.63;49.62;101768.44;5074976;28;20020;-65
2022/07/30 04:08:29;;;;;;;5.28;3.10;;;;;;;22.62;49.41;101766.75;5075268;28;20025;-65
2022/07/30 04:10:56;;;;;;;5.75;2.97;;;;;;;22.61;49.29;101767.75;5074407;28;20028;-65
2022/07/30 04:13:24;;;;;;;6.43;3.10;;;;;;;22.60;49.38;101774.84;5075125;28;20494;-65
2022/07/30 04:16:09;;;;;;;5.22;3.20;;;;;;;22.61;49.63;101784.53;5073484;28;20041;-65
2022/07/30 04:18:41;;;;;;;5.55;2.95;;;;;;;22.59;49.48;101778.50;5075292;28;20052;-65
2022/07/30 04:21:09;;;;;;;5.55;2.90;;;;;;;22.59;49.27;101788.31;5074728;28;20061;-65
2022/07/30 04:23:34;;;;;;;8.80;3.10;;;;;;;22.59;49.32;101783.00;5073347;28;20025;-65
2022/07/30 04:26:00;;;;;;;7.07;3.22;;;;;;;22.58;49.56;101789.25;5074601;28;20032;-65
2022/07/30 04:28:27;;;;;;;6.55;3.42;;;;;;;22.59;49.68;101790.97;5075058;28;20376;-65
2022/07/30 04:30:55;;;;;;;5.10;2.92;;;;;;;22.57;49.52;101787.56;5074222;28;20024;-65
2022/07/30 04:33:21;;;;;;;6.03;2.70;;;;;;;22.58;49.58;101783.94;5074910;28;20021;-65
2022/07/30 04:35:46;;;;;;;4.15;2.53;;;;;;;22.57;49.75;101785.78;5074839;28;20040;-65
2022/07/30 04:38:13;;;;;;;5.15;2.78;;;;;;;22.57;49.69;101791.09;5073717;28;20031;-65
2022/07/30 04:40:39;;;;;;;5.40;2.88;;;;;;;22.57;49.47;101791.09;5074836;28;20376;-65
2022/07/30 04:43:04;;;;;;;5.43;3.00;;;;;;;22.56;49.57;101797.38;5074544;28;20380;-65
2022/07/30 04:45:29;;;;;;;5.45;3.15;;;;;;;22.57;49.51;101804.38;5073981;28;20024;-65
2022/07/30 04:47:55;;;;;;;4.83;2.80;;;;;;;22.58;49.24;101813.16;5074720;28;20099;-65
2022/07/30 04:50:25;;;;;;;5.55;3.10;;;;;;;22.57;49.36;101811.47;5074414;28;20269;-65
2022/07/30 04:52:52;;;;;;;4.70;2.85;;;;;;;22.57;49.50;101812.34;5073654;28;20020;-65
2022/07/30 04:55:19;;;;;;;5.47;2.90;;;;;;;22.55;49.79;101811.59;5074311;28;20064;-65
2022/07/30 04:57:48;;;;;;;4.95;2.80;;;;;;;22.57;49.57;101808.81;5074632;28;20020;-65
2022/07/30 05:00:13;;;;;;;5.72;2.78;;;;;;;22.56;49.52;101818.63;5073264;28;20494;-65
2022/07/30 05:02:40;;;;;;;5.93;2.70;;;;;;;22.56;49.42;101818.63;5074442;28;20111;-65
2022/07/30 05:05:07;;;;;;;4.60;2.70;;;;;;;22.56;49.93;101821.28;5073226;28;20431;-65
2022/07/30 05:07:33;;;;;;;5.50;2.85;;;;;;;22.56;49.52;101815.97;5074104;28;20039;-66
2022/07/30 05:10:02;;;;;;;5.45;3.03;;;;;;;22.56;49.79;101820.44;5074005;28;20071;-65
2022/07/30 05:12:38;;;;;;;5.32;3.30;;;;;;;22.57;49.47;101819.44;5073213;28;20073;-65
2022/07/30 05:15:05;;;;;;;4.88;2.67;;;;;;;22.56;49.79;101823.94;5073570;28;20040;-65
2022/07/30 05:17:30;;;;;;;4.50;2.63;;;;;;;22.57;49.53;101822.09;5073917;28;20020;-66
2022/07/30 05:19:55;;;;;;;4.82;2.85;;;;;;;22.55;49.44;101814.25;5072833;28;20380;-65
2022/07/30 05:22:21;;;;;;;5.93;3.20;;;;;;;22.56;49.77;101813.31;5073972;28;20032;-65
2022/07/30 05:24:46;;;;;;;5.28;3.20;;;;;;;22.57;49.53;101816.78;5074021;28;20617;-65
2022/07/30 05:27:11;;;;;;;5.27;2.87;;;;;;;22.56;49.77;101815.97;5072699;28;20499;-65
2022/07/30 05:29:36;;;;;;;5.00;2.80;;;;;;;22.57;49.58;101819.44;5073974;28;20380;-65
2022/07/30 05:32:02;;;;;;;5.00;2.87;;;;;;;22.56;49.78;101818.63;5073244;28;20261;-65
2022/07/30 05:34:27;;;;;;;4.95;2.65;;;;;;;22.58;49.58;101823.81;5072776;28;20272;-65
2022/07/30 05:36:52;;;;;;;5.15;2.90;;;;;;;22.58;49.74;101824.63;5073385;28;20028;-65
2022/07/30 05:39:20;;;;;;;4.83;2.80;;;;;;;22.57;49.98;101830.06;5073379;28;20517;-65
2022/07/30 05:41:46;;;;;;;5.47;2.70;;;;;;;22.59;49.85;101828.16;5072769;28;20315;-65
2022/07/30 05:44:11;;;;;;;6.50;2.97;;;;;;;22.58;50.15;101829.94;5073194;28;20020;-65
2022/07/30 05:46:36;;;;;;;6.32;2.75;;;;;;;22.59;50.00;101828.97;5073468;28;20024;-65
2022/07/30 05:49:02;;;;;;;6.13;2.95;;;;;;;22.60;50.20;101832.47;5072756;28;20029;-65
2022/07/30 05:51:28;;;;;;;5.50;2.90;;;;;;;22.61;49.95;101834.16;5073576;28;20478;-67
2022/07/30 05:53:56;;;;;;;5.22;2.95;;;;;;;22.62;50.28;101830.50;5073579;28;20032;-65
2022/07/30 05:56:21;;;;;;;8.88;5.70;;;;;;;22.56;51.25;101831.91;5072536;28;20111;-66
2022/07/30 05:58:47;;;;;;;9.07;4.70;;;;;;;22.38;52.08;101841.41;5073121;28;20103;-65
2022/07/30 06:01:12;;;;;;;8.43;5.57;;;;;;;22.16;52.77;101842.31;5072934;28;20423;-66
2022/07/30 06:03:37;;;;;;;7.65;4.63;;;;;;;21.97;53.20;101838.56;5072319;28;20305;-66
2022/07/30 06:06:03;;;;;;;7.78;5.18;;;;;;;21.80;53.67;101847.88;5072692;28;20035;-65
2022/07/30 06:08:29;;;;;;;9.20;5.03;;;;;;;21.69;54.62;101847.91;5072442;28;20032;-65
2022/07/30 06:10:54;;;;;;;10.35;5.28;;;;;;;21.58;54.71;101845.28;5073568;28;20028;-65
2022/07/30 06:13:19;;;;;;;11.70;5.17;;;;;;;21.48;55.17;101848.66;5072908;28;20081;-66
2022/07/30 06:15:45;;;;;;;9.47;4.57;;;;;;;21.42;55.48;101845.63;5071989;28;20768;-66
2022/07/30 06:18:13;;;;;;;7.00;4.40;;;;;;;21.37;56.15;101852.13;5072665;28;20269;-66
2022/07/30 06:20:38;;;;;;;6.30;3.95;;;;;;;21.34;55.92;101848.91;5072307;28;20292;-66
2022/07/30 06:23:03;;;;;;;9.20;4.25;;;;;;;21.32;55.72;101853.50;5071965;28;20029;-66
2022/07/30 06:25:29;;;;;;;8.07;4.77;;;;;;;21.28;55.72;101852.88;5073501;28;20113;-66
2022/07/30 06:27:54;;;;;;;10.18;3.90;;;;;;;21.33;55.50;101855.16;5072920;28;20752;-65
2022/07/30 06:30:19;;;;;;;5.70;2.75;;;;;;;21.46;55.29;101857.66;5071720;28;20479;-64
2022/07/30 06:32:50;;;;;;;4.43;2.50;;;;;;;21.61;54.60;101848.53;5072601;28;20033;-64
2022/07/30 06:35:15;;;;;;;4.57;2.40;;;;;;;21.79;54.04;101853.31;5072564;28;20330;-64
2022/07/30 06:37:41;;;;;;;5.78;2.40;;;;;;;21.93;53.60;101856.50;5071684;28;20021;-64
2022/07/30 06:40:07;;;;;;;5.05;2.55;;;;;;;22.08;53.35;101862.41;5072442;28;20040;-64
2022/07/30 06:42:33;;;;;;;5.25;2.42;;;;;;;22.18;53.15;101861.66;5072502;28;20024;-70
2022/07/30 06:44:58;;;;;;;5.28;2.30;;;;;;;22.27;52.94;101859.06;5071640;28;20039;-67
2022/07/30 06:47:28;;;;;;;5.47;2.10;;;;;;;22.38;52.49;101868.84;5071828;28;20442;-67
2022/07/30 06:49:54;;;;;;;4.22;2.10;;;;;;;22.49;52.19;101865.25;5072774;28;20269;-66
2022/07/30 06:52:19;;;;;;;5.20;2.17;;;;;;;22.56;51.92;101854.97;5071547;28;20051;-64
2022/07/30 06:54:46;;;;;;;5.40;1.90;;;;;;;22.65;51.60;101864.78;5072446;28;20498;-67
2022/07/30 06:57:11;;;;;;;4.65;1.80;;;;;;;22.71;51.54;101860.78;5072170;28;20438;-65
2022/07/30 06:59:37;;;;;;;4.30;1.90;;;;;;;22.78;51.37;101864.59;5071680;28;20028;-66
2022/07/30 07:02:02;;;;;;;4.90;1.70;;;;;;;22.83;51.19;101873.03;5071950;28;20476;-67
2022/07/30 07:04:33;;;;;;;4.10;1.83;;;;;;;22.85;51.31;101868.44;5072562;28;20274;-68
2022/07/30 07:06:58;;;;;;;4.22;1.98;;;;;;;22.87;51.10;101868.28;5071418;28;20033;-68
2022/07/30 07:09:27;;;;;;;3.67;1.85;;;;;;;22.91;50.92;101875.03;5072319;28;20032;-67
2022/07/30 07:11:55;;;;;;;5.10;1.90;;;;;;;22.94;51.23;101872.09;5071385;28;20059;-65
2022/07/30 07:14:20;;;;;;;7.60;2.45;;;;;;;22.95;50.71;101879.09;5072139;28;20121;-65
2022/07/30 07:16:47;;;;;;;5.23;2.20;;;;;;;22.94;50.98;101872.09;5071995;28;20484;-65
2022/07/30 07:19:12;;;;;;;5.70;2.00;;;;;;;23.00;50.73;101879.53;5071103;28;20395;-66
2022/07/30 07:21:38;;;;;;;6.45;2.10;;;;;;;23.05;50.51;101876.50;5072053;28;20107;-67
2022/07/30 07:24:07;;;;;;;4.80;1.90;;;;;;;23.09;50.50;101864.66;5071856;28;20400;-66
2022/07/30 07:26:39;;;;;;;4.32;1.80;;;;;;;23.11;50.44;101863.53;5071294;28;20480;-65
2022/07/30 07:29:04;;;;;;;4.55;1.83;;;;;;;23.13;50.61;101864.28;5071806;28;20051;-65
2022/07/30 07:31:29;;;;;;;6.20;2.33;;;;;;;23.15;50.65;101866.78;5072042;28;20486;-65
2022/07/30 07:33:54;;;;;;;5.50;1.83;;;;;;;23.18;50.31;101871.84;5071514;28;20085;-65
2022/07/30 07:36:20;;;;;;;4.70;1.92;;;;;;;23.20;50.12;101872.53;5072106;28;20025;-65
2022/07/30 07:38:46;;;;;;;3.05;1.60;;;;;;;23.21;50.31;101876.91;5072263;28;20127;-64
2022/07/30 07:41:11;;;;;;;4.05;1.90;;;;;;;23.26;50.26;101877.34;5071018;28;20146;-63
2022/07/30 07:43:39;;;;;;;5.00;1.80;;;;;;;23.29;50.10;101879.72;5071816;28;20115;-63
2022/07/30 07:46:05;;;;;;;3.42;1.65;;;;;;;23.32;49.72;101881.25;5071879;28;20031;-64
2022/07/30 07:48:31;;;;;;;4.20;1.80;;;;;;;23.34;49.86;101874.00;5071109;28;20017;-64
2022/07/30 07:50:56;;;;;;;3.95;1.83;;;;;;;23.35;49.81;101873.88;5071481;28;20055;-66
2022/07/30 07:53:21;;;;;;;4.07;1.70;;;;;;;23.37;49.53;101873.75;5071768;28;20025;-67
2022/07/30 07:55:47;;;;;;;3.67;1.57;;;;;;;23.35;49.27;101871.22;5071259;28;20029;-67
2022/07/30 07:58:12;;;;;;;4.17;1.73;;;;;;;23.35;49.36;101873.88;5072070;28;20261;-66
2022/07/30 08:00:39;;;;;;;4.80;1.70;;;;;;;23.36;49.40;101872.06;5075538;28;20293;-67
2022/07/30 08:03:04;;;;;;;4.68;1.70;;;;;;;23.35;49.18;101865.91;5074239;28;20100;-66
2022/07/30 08:05:30;;;;;;;8.35;1.92;;;;;;;23.36;49.37;101867.56;5075249;28;20024;-66
2022/07/30 08:07:55;;;;;;;4.70;1.88;;;;;;;23.34;49.34;101877.50;5074586;28;20460;-66
2022/07/30 08:10:20;;;;;;;5.55;1.75;;;;;;;23.28;48.76;101878.03;5074818;28;20117;-67
2022/07/30 08:12:46;;;;;;;4.60;2.00;;;;;;;23.25;49.22;101869.50;5075001;28;20111;-70
2022/07/30 08:15:14;;;;;;;5.32;1.73;;;;;;;23.24;49.36;101875.78;5073831;28;20049;-70
2022/07/30 08:17:41;;;;;;;4.30;1.67;;;;;;;23.24;49.16;101863.34;5074967;28;20055;-67
2022/07/30 08:20:07;;;;;;;6.18;2.00;;;;;;;23.25;49.31;101875.63;5075416;28;20032;-70
2022/07/30 08:22:36;;;;;;;4.85;1.73;;;;;;;23.26;49.63;101866.69;5075047;28;20025;-71
2022/07/30 08:25:02;;;;;;;4.40;1.67;;;;;;;23.31;49.62;101867.13;5075280;28;20130;-70
2022/07/30 08:27:27;;;;;;;4.78;1.90;;;;;;;23.36;49.03;101870.22;5075278;28;20028;-69
2022/07/30 08:29:52;;;;;;;4.28;1.85;;;;;;;23.41;49.06;101872.47;5074762;28;20024;-77
2022/07/30 08:32:18;;;;;;;3.73;1.63;;;;;;;23.45;49.17;101865.94;5074622;28;20433;-76
2022/07/30 08:34:43;;;;;;;5.35;1.70;;;;;;;23.48;49.21;101870.13;5075046;28;20269;-74
2022/07/30 08:37:09;;;;;;;3.90;1.70;;;;;;;23.50;48.49;101879.66;5073493;28;20025;-72
2022/07/30 08:39:36;;;;;;;4.72;1.60;;;;;;;23.53;48.42;101870.56;5074741;28;20022;-73
2022/07/30 08:42:03;;;;;;;3.63;1.48;;;;;;;23.59;48.37;101877.16;5075527;28;20029;-74
2022/07/30 08:44:32;;;;;;;4.38;1.58;;;;;;;23.62;48.47;101871.56;5074675;28;20044;-68
2022/07/30 08:47:02;;;;;;;3.25;1.40;;;;;;;23.62;48.46;101866.25;5075134;28;20068;-69
2022/07/30 08:49:31;;;;;;;5.95;1.70;;;;;;;23.66;48.43;101863.16;5075328;28;20093;-70
2022/07/30 08:51:56;;;;;;;5.60;1.52;;;;;;;23.70;48.21;101867.25;5073967;28;20088;-67
2022/07/30 08:54:22;;;;;;;4.47;1.92;;;;;;;23.72;48.04;101873.28;5074926;28;20064;-71
2022/07/30 08:56:48;;;;;;;3.42;1.70;;;;;;;23.76;47.95;101863.19;5074838;28;20025;-73
2022/07/30 08:59:17;;;;;;;4.80;2.03;;;;;;;23.79;47.49;101867.41;5074033;28;20359;-73
2022/07/30 09:01:46;;;;;;;3.85;1.50;;;;;;;23.84;47.54;101868.69;5075663;28;20047;-76
2022/07/30 09:04:13;;;;;;;2.58;1.23;;;;;;;23.87;47.37;101862.25;5074473;28;20026;-75
2022/07/30 09:06:41;;;;;;;4.05;1.63;;;;;;;23.90;47.45;101854.81;5074385;28;20037;-70
2022/07/30 09:09:07;;;;;;;5.30;1.70;;;;;;;23.92;47.30;101862.69;5073709;28;20472;-71
2022/07/30 09:11:34;;;;;;;3.38;1.40;;;;;;;23.92;47.37;101869.84;5072787;28;20055;-71
2022/07/30 09:14:11;;;;;;;3.58;1.60;;;;;;;23.93;46.71;101871.53;5073783;28;20108;-72
2022/07/30 09:16:37;;;;;;;3.22;1.65;;;;;;;23.89;45.13;101870.94;5073413;28;20101;-67
2022/07/30 09:19:16;;;;;;;4.68;1.80;;;;;;;23.82;45.05;101878.59;5072604;28;20059;-69
2022/07/30 09:21:53;;;;;;;5.32;1.80;;;;;;;23.75;44.70;101882.81;5073758;28;20025;-70
2022/07/30 09:24:18;;;;;;;5.40;1.88;;;;;;;23.67;45.24;101882.63;5073628;28;20017;-72
2022/07/30 09:27:00;;;;;;;3.40;1.50;;;;;;;23.66;46.10;101891.59;5072865;28;20027;-75
2022/07/30 09:29:30;;;;;;;4.80;1.60;;;;;;;23.67;46.86;101894.13;5073595;28;20715;-74
2022/07/30 09:32:00;;;;;;;2.60;1.20;;;;;;;23.71;46.98;101897.34;5073336;28;20020;-76
2022/07/30 09:34:28;;;;;;;3.67;1.50;;;;;;;23.72;46.53;101894.56;5072824;28;20024;-74
2022/07/30 09:36:55;;;;;;;3.42;1.70;;;;;;;23.76;46.32;101895.13;5073667;28;20024;-73
2022/07/30 09:39:35;;;;;;;3.33;1.48;;;;;;;23.78;46.45;101887.84;5072976;28;20360;-75
2022/07/30 09:42:15;;;;;;;3.97;1.50;;;;;;;23.81;46.73;101884.91;5073197;28;20024;-70
2022/07/30 09:44:41;;;;;;;7.65;1.70;;;;;;;23.83;46.52;101880.34;5073341;28;20020;-69
2022/07/30 09:47:06;;;;;;;3.97;1.40;;;;;;;23.85;46.38;101880.19;5072486;28;20017;-67
2022/07/30 09:49:32;;;;;;;3.00;1.40;;;;;;;23.90;46.30;101880.63;5073765;28;20025;-70
2022/07/30 09:52:00;;;;;;;4.65;1.50;;;;;;;23.93;46.28;101883.00;5073351;28;20029;-72
2022/07/30 09:54:46;;;;;;;4.47;1.65;;;;;;;23.98;46.37;101877.28;5072955;28;20065;-70
2022/07/30 09:57:11;;;;;;;2.60;1.30;;;;;;;24.01;46.32;101869.84;5073035;28;20100;-69
2022/07/30 09:59:36;;;;;;;3.07;1.20;;;;;;;24.06;46.33;101867.59;5073317;28;20445;-71
2022/07/30 10:02:02;;;;;;;3.30;1.20;;;;;;;24.08;46.19;101868.31;5072817;28;20269;-71
2022/07/30 10:04:31;;;;;;;5.60;1.30;;;;;;;24.13;46.15;101864.38;5073298;28;20074;-71
2022/07/30 10:06:59;;;;;;;4.50;1.33;;;;;;;24.16;46.29;101869.41;5072722;28;20021;-71
2022/07/30 10:09:28;;;;;;;3.65;1.30;;;;;;;24.17;46.13;101861.28;5072001;28;20056;-69
2022/07/30 10:11:56;;;;;;;3.63;1.30;;;;;;;24.18;46.19;101872.78;5073191;28;20024;-70
2022/07/30 10:14:27;;;;;;;3.17;1.30;;;;;;;24.20;46.30;101863.69;5072836;28;20372;-70
2022/07/30 10:16:53;;;;;;;3.95;1.48;;;;;;;24.22;45.84;101856.38;5071817;28;20507;-80
2022/07/30 10:19:19;;;;;;;3.42;1.55;;;;;;;24.29;45.97;101872.63;5072588;28;20024;-78
2022/07/30 10:21:45;;;;;;;4.38;1.35;;;;;;;24.32;46.17;101864.34;5071166;28;20016;-77
2022/07/30 10:24:11;;;;;;;5.60;1.25;;;;;;;24.35;45.98;101857.91;5072507;28;20103;-80
2022/07/30 10:26:37;;;;;;;4.28;1.52;;;;;;;24.38;45.84;101854.97;5072158;28;20098;-78
2022/07/30 10:29:03;;;;;;;2.72;1.30;;;;;;;24.40;45.65;101859.19;5071882;28;20031;-80
2022/07/30 10:31:29;;;;;;;4.40;1.55;;;;;;;24.42;45.44;101867.88;5073462;28;20584;-78
2022/07/30 10:33:55;;;;;;;3.17;1.40;;;;;;;24.42;45.81;101859.88;5072831;28;20066;-81
2022/07/30 10:36:22;;;;;;;3.22;1.27;;;;;;;24.41;45.55;101860.03;5072125;28;20020;-68
2022/07/30 10:38:49;;;;;;;4.18;1.35;;;;;;;24.44;45.74;101867.72;5072598;28;20017;-68
2022/07/30 10:41:28;;;;;;;3.15;1.40;;;;;;;24.44;45.80;101859.75;5072486;28;20082;-67
2022/07/30 10:44:05;;;;;;;5.90;1.45;;;;;;;24.46;45.56;101865.75;5071890;28;20104;-67
2022/07/30 10:46:50;;;;;;;2.80;1.08;;;;;;;24.44;45.68;101857.06;5072682;28;20029;-67
2022/07/30 10:49:16;;;;;;;3.50;1.40;;;;;;;24.42;45.71;101859.88;5072079;28;20040;-76
2022/07/30 10:51:44;;;;;;;6.40;1.45;;;;;;;24.43;45.18;101872.22;5071997;28;20048;-67
2022/07/30 10:54:46;;;;;;;4.03;1.92;;;;;;;24.41;44.86;101866.19;5072527;28;20029;-78
2022/07/30 10:57:16;;;;;;;6.60;1.92;;;;;;;24.39;45.56;101862.81;5071540;28;20028;-73
2022/07/30 10:59:54;;;;;;;4.35;1.67;;;;;;;24.39;45.29;101865.50;5072485;28;20036;-70
2022/07/30 11:02:23;;;;;;;4.93;1.80;;;;;;;24.41;45.38;101866.19;5072160;28;20025;-71
2022/07/30 11:04:49;;;;;;;3.85;1.70;;;;;;;24.39;45.37;101859.31;5071768;28;20029;-70
2022/07/30 11:07:20;;;;;;;4.30;1.60;;;;;;;24.39;45.40;101859.31;5072190;28;20024;-70
2022/07/30 11:09:46;;;;;;;3.33;1.60;;;;;;;24.37;45.37;101856.81;5072032;28;20028;-70
2022/07/30 11:12:11;;;;;;;5.07;1.58;;;;;;;24.38;45.40;101857.63;5071250;28;20468;-72
2022/07/30 11:14:57;;;;;;;3.72;1.40;;;;;;;24.39;45.44;101856.66;5072077;28;20103;-71
2022/07/30 11:17:23;;;;;;;4.03;1.38;;;;;;;24.39;45.62;101854.84;5055305;28;20060;-71
2022/07/30 11:20:19;;;;;;;3.95;1.40;;;;;;;24.40;45.67;101853.00;5070602;28;20515;-72
2022/07/30 11:22:48;;;;;;;5.88;1.80;;;;;;;24.40;45.40;101847.66;5052495;28;20043;-72
2022/07/30 11:25:38;;;;;;;4.95;1.65;;;;;;;24.36;45.80;101851.63;5071220;28;20024;-70
2022/07/30 11:28:06;;;;;;;4.15;1.50;;;;;;;24.33;45.53;101855.41;5071843;28;20086;-73